Time;durP1;ratioP1;P1;durP2;ratioP2;P2;SDS_P1;SDS_P2;PMS_P1;PMS_P2;Temp;Humidity;BMP_temperature;BMP_pressure;BME280_temperature;BME280_humidity;BME280_pressure;Samples;Min_cycle;Max_cycle;Signal;HPM_P1;HPM_P2
2022/12/24 00:01:35;;;;;;;16.73;7.43;;;6.40;99.90;;;;;;4203634;28;20471;-87
2022/12/24 00:03:36;;;;;;;16.00;7.60;;;6.40;99.90;;;;;;4185278;28;20045;-87
2022/12/24 00:05:38;;;;;;;16.55;8.15;;;6.60;99.90;;;;;;4185644;28;20059;-87
2022/12/24 00:07:39;;;;;;;17.45;7.85;;;6.40;99.90;;;;;;4184965;28;20060;-87
2022/12/24 00:09:40;;;;;;;17.17;7.70;;;6.40;99.90;;;;;;4202502;28;20090;-87
2022/12/24 00:11:40;;;;;;;16.45;8.02;;;7.30;99.90;;;;;;4202141;28;20049;-87
2022/12/24 00:13:41;;;;;;;16.70;8.27;;;6.50;99.90;;;;;;4202567;28;20043;-87
2022/12/24 00:15:43;;;;;;;16.88;7.38;;;6.40;99.90;;;;;;4201201;28;20132;-87
2022/12/24 00:17:44;;;;;;;18.15;7.15;;;6.40;99.90;;;;;;4202583;28;20045;-87
2022/12/24 00:19:44;;;;;;;19.50;7.80;;;7.10;99.90;;;;;;4201761;28;20101;-87
2022/12/24 00:21:46;;;;;;;16.23;7.13;;;6.90;99.90;;;;;;4201672;28;20051;-87
2022/12/24 00:23:47;;;;;;;18.65;8.00;;;6.50;99.90;;;;;;4201646;28;20048;-87
2022/12/24 00:25:50;;;;;;;16.83;7.50;;;6.80;99.90;;;;;;4184767;28;20056;-87
2022/12/24 00:27:51;;;;;;;15.48;7.82;;;6.40;99.90;;;;;;4199173;28;20433;-87
2022/12/24 00:29:52;;;;;;;17.70;7.13;;;6.50;99.90;;;;;;4217651;28;20048;-87
2022/12/24 00:31:53;;;;;;;19.40;7.38;;;6.40;99.90;;;;;;4217762;28;20523;-86
2022/12/24 00:33:54;;;;;;;15.50;7.38;;;7.20;99.90;;;;;;4219542;28;20450;-87
2022/12/24 00:36:01;;;;;;;18.02;7.32;;;6.40;99.90;;;;;;4201779;28;20093;-87
2022/12/24 00:38:03;;;;;;;18.77;7.43;;;6.40;99.90;;;;;;4201773;28;20097;-87
2022/12/24 00:40:04;;;;;;;18.48;7.82;;;6.40;99.90;;;;;;4201247;28;20052;-87
2022/12/24 00:42:06;;;;;;;19.65;7.20;;;6.40;99.90;;;;;;4201507;28;20504;-87
2022/12/24 00:44:09;;;;;;;14.90;6.60;;;6.40;99.90;;;;;;4219360;28;20059;-87
2022/12/24 00:46:09;;;;;;;18.15;7.65;;;7.00;99.90;;;;;;4217838;28;20044;-88
2022/12/24 00:48:11;;;;;;;19.95;7.55;;;6.90;99.90;;;;;;4216128;28;20050;-88
2022/12/24 00:50:13;;;;;;;14.93;7.00;;;7.10;99.90;;;;;;4199922;28;20048;-88
2022/12/24 00:52:14;;;;;;;17.50;7.03;;;6.40;99.90;;;;;;4216770;28;20055;-88
2022/12/24 00:54:14;;;;;;;20.02;7.72;;;6.40;99.90;;;;;;4216593;28;20040;-88
2022/12/24 00:56:16;;;;;;;17.58;7.28;;;6.40;99.90;;;;;;4216614;28;20135;-88
2022/12/24 00:58:17;;;;;;;15.00;7.07;;;6.50;99.90;;;;;;4218365;28;20072;-88
2022/12/24 01:00:19;;;;;;;19.92;7.90;;;6.40;99.90;;;;;;4217641;28;20047;-88
2022/12/24 01:02:21;;;;;;;16.95;7.25;;;6.40;99.90;;;;;;4217266;28;20052;-88
2022/12/24 01:06:43;;;;;;;16.95;7.88;;;6.50;99.90;;;;;;4217634;28;20051;-88
2022/12/24 01:08:45;;;;;;;18.98;8.15;;;6.50;99.90;;;;;;4199803;28;20063;-88
2022/12/24 01:10:46;;;;;;;18.35;6.45;;;6.40;99.90;;;;;;4216996;28;20036;-88
2022/12/24 01:12:49;;;;;;;16.67;7.90;;;7.20;99.90;;;;;;4216591;28;20043;-88
2022/12/24 01:14:50;;;;;;;17.77;7.55;;;6.40;99.90;;;;;;4215520;28;20492;-88
2022/12/24 01:16:51;;;;;;;18.75;7.97;;;6.40;99.90;;;;;;4199504;28;20133;-88
2022/12/24 01:18:52;;;;;;;14.27;6.50;;;6.50;99.90;;;;;;4216055;28;20098;-88
2022/12/24 01:21:01;;;;;;;15.98;7.38;;;7.40;99.90;;;;;;4216520;28;20043;-88
2022/12/24 01:23:01;;;;;;;15.63;7.20;;;6.40;99.90;;;;;;4217824;28;20048;-88
2022/12/24 01:25:03;;;;;;;20.67;8.10;;;6.40;99.90;;;;;;4215848;28;20452;-88
2022/12/24 01:27:04;;;;;;;13.63;6.70;;;6.40;99.90;;;;;;4219062;28;20044;-88
2022/12/24 01:29:05;;;;;;;15.80;7.65;;;6.50;99.90;;;;;;4210115;28;20059;-88
2022/12/24 01:31:11;;;;;;;16.35;7.47;;;6.40;99.90;;;;;;4204436;28;20511;-88
2022/12/24 01:33:12;;;;;;;19.52;8.73;;;6.90;99.90;;;;;;4190428;28;20445;-87
2022/12/24 01:35:13;;;;;;;21.63;7.07;;;6.50;99.90;;;;;;4215239;28;20036;-88
2022/12/24 01:37:13;;;;;;;20.88;8.43;;;7.10;99.90;;;;;;4198776;28;20049;-88
2022/12/24 01:39:14;;;;;;;18.17;8.10;;;6.40;99.90;;;;;;4215740;28;20048;-87
2022/12/24 01:43:41;;;;;;;15.73;7.53;;;5.30;99.90;;;;;;4208387;28;20052;-88
2022/12/24 01:45:57;;;;;;;16.98;7.72;;;6.40;99.90;;;;;;4208271;28;20123;-88
2022/12/24 01:47:59;;;;;;;17.92;8.40;;;6.40;99.90;;;;;;4189522;28;20045;-88
2022/12/24 01:50:11;;;;;;;18.10;8.88;;;7.60;99.90;;;;;;4189538;28;20501;-89
2022/12/24 01:52:21;;;;;;;16.75;7.75;;;6.40;99.90;;;;;;4182980;28;20057;-88
2022/12/24 01:54:31;;;;;;;16.67;8.30;;;6.40;99.90;;;;;;4198697;28;20052;-88
2022/12/24 01:56:36;;;;;;;19.73;7.65;;;5.90;99.90;;;;;;4199902;28;20486;-88
2022/12/24 01:58:38;;;;;;;19.73;7.75;;;8.20;99.90;;;;;;4198845;28;20044;-88
2022/12/24 02:00:40;;;;;;;15.90;8.15;;;5.20;99.90;;;;;;4198906;28;20126;-88
2022/12/24 02:02:46;;;;;;;18.58;7.22;;;6.50;99.90;;;;;;4181944;28;20045;-88
2022/12/24 02:04:57;;;;;;;17.88;8.18;;;6.50;99.90;;;;;;4198482;28;20048;-88
2022/12/24 02:06:59;;;;;;;17.27;7.93;;;6.50;99.90;;;;;;4182008;28;20048;-88
2022/12/24 02:09:02;;;;;;;16.08;8.00;;;6.40;99.90;;;;;;4197631;28;20095;-87
2022/12/24 02:11:20;;;;;;;17.15;8.50;;;6.40;99.90;;;;;;4198816;28;20135;-87
2022/12/24 02:13:21;;;;;;;18.88;7.97;;;6.40;99.90;;;;;;4199895;28;20507;-88
2022/12/24 02:15:22;;;;;;;19.60;8.10;;;6.40;99.90;;;;;;4199868;28;20043;-88
2022/12/24 02:17:41;;;;;;;20.40;8.13;;;6.30;99.90;;;;;;4182164;28;20674;-88
2022/12/24 02:19:41;;;;;;;22.23;9.33;;;7.30;99.90;;;;;;4182726;28;20041;-88
2022/12/24 02:21:54;;;;;;;21.95;8.55;;;6.40;99.90;;;;;;4199065;28;20282;-87
2022/12/24 02:24:28;;;;;;;18.98;7.85;;;6.40;99.90;;;;;;4182380;28;20132;-87
2022/12/24 02:26:59;;;;;;;19.92;7.97;;;6.60;99.90;;;;;;4198667;28;20048;-88
2022/12/24 02:29:30;;;;;;;21.60;8.57;;;6.40;99.90;;;;;;4181671;28;20057;-88
2022/12/24 02:31:40;;;;;;;18.98;7.60;;;6.40;99.90;;;;;;4198730;28;20050;-88
2022/12/24 02:33:46;;;;;;;18.65;8.77;;;6.40;99.90;;;;;;4182243;28;20476;-88
2022/12/24 02:36:15;;;;;;;23.33;9.70;;;6.40;99.90;;;;;;4182004;28;20084;-88
2022/12/24 02:38:30;;;;;;;23.50;8.20;;;6.40;99.90;;;;;;4172890;28;20210;-87
2022/12/24 02:40:46;;;;;;;19.42;9.48;;;6.40;99.90;;;;;;4215713;28;20044;-87
2022/12/24 02:42:54;;;;;;;20.33;8.93;;;6.40;99.90;;;;;;4198816;28;20052;-89
2022/12/24 02:45:05;;;;;;;20.73;8.75;;;6.40;99.90;;;;;;4198804;28;20053;-88
2022/12/24 02:47:08;;;;;;;16.13;8.40;;;6.40;99.90;;;;;;4199222;28;20079;-88
2022/12/24 02:49:11;;;;;;;18.10;8.15;;;5.70;99.90;;;;;;4181970;28;20105;-88
2022/12/24 02:51:12;;;;;;;21.10;9.13;;;6.40;99.90;;;;;;4201929;28;20040;-88
2022/12/24 02:53:15;;;;;;;22.02;8.93;;;7.40;99.90;;;;;;4201758;28;20088;-88
2022/12/24 02:55:54;;;;;;;21.58;8.75;;;6.40;99.90;;;;;;4201767;28;20053;-88
2022/12/24 02:58:27;;;;;;;21.58;9.15;;;6.40;99.90;;;;;;4201309;28;20043;-88
2022/12/24 03:00:52;;;;;;;20.63;8.98;;;6.40;99.90;;;;;;4184749;28;20045;-87
2022/12/24 03:03:42;;;;;;;19.77;8.82;;;6.40;99.90;;;;;;4202022;28;20064;-87
2022/12/24 03:06:10;;;;;;;19.92;7.90;;;6.40;99.90;;;;;;4184809;28;20131;-87
2022/12/24 03:08:21;;;;;;;19.13;8.20;;;6.40;99.90;;;;;;4202260;28;20056;-87
2022/12/24 03:10:43;;;;;;;20.45;8.50;;;6.40;99.90;;;;;;4203066;28;20040;-88
2022/12/24 03:12:53;;;;;;;21.33;8.95;;;6.50;99.90;;;;;;4202410;28;20048;-88
2022/12/24 03:14:54;;;;;;;20.50;7.95;;;6.50;99.90;;;;;;4202181;28;20047;-87
2022/12/24 03:16:57;;;;;;;22.50;9.32;;;6.50;99.90;;;;;;4201395;28;20052;-87
2022/12/24 03:18:59;;;;;;;20.85;8.85;;;6.50;99.90;;;;;;4184948;28;20041;-88
2022/12/24 03:21:11;;;;;;;24.85;8.90;;;6.50;99.90;;;;;;4184743;28;20056;-87
2022/12/24 03:23:19;;;;;;;25.50;9.18;;;6.50;99.90;;;;;;4201438;28;20053;-88
2022/12/24 03:25:24;;;;;;;19.80;9.60;;;6.60;99.90;;;;;;4184983;28;20045;-88
2022/12/24 03:27:29;;;;;;;21.77;9.63;;;6.60;99.90;;;;;;4184757;28;20094;-88
2022/12/24 03:29:29;;;;;;;25.65;10.02;;;6.60;99.90;;;;;;4203357;28;20049;-88
2022/12/24 03:31:44;;;;;;;23.75;9.30;;;6.80;99.90;;;;;;4201812;28;20114;-88
2022/12/24 03:33:47;;;;;;;22.67;9.45;;;6.70;99.90;;;;;;4201182;28;20049;-88
2022/12/24 03:35:48;;;;;;;22.40;8.38;;;6.60;99.90;;;;;;4201246;28;20059;-88
2022/12/24 03:37:49;;;;;;;24.35;9.85;;;6.60;99.90;;;;;;4184101;28;20037;-88
2022/12/24 03:39:51;;;;;;;19.15;8.48;;;6.70;99.90;;;;;;4202269;28;20488;-88
2022/12/24 03:41:53;;;;;;;19.55;9.18;;;6.70;99.90;;;;;;4184236;28;20045;-88
2022/12/24 03:43:55;;;;;;;21.05;9.10;;;6.70;99.90;;;;;;4184632;28;20049;-87
2022/12/24 03:45:57;;;;;;;24.30;10.00;;;7.20;99.90;;;;;;4201594;28;20125;-87
2022/12/24 03:47:58;;;;;;;20.75;9.52;;;6.80;99.90;;;;;;4200609;28;20050;-88
2022/12/24 03:49:59;;;;;;;21.45;7.72;;;6.90;99.90;;;;;;4201576;28;20583;-87
2022/12/24 03:52:00;;;;;;;21.45;7.63;;;6.90;99.90;;;;;;4201420;28;20117;-87
2022/12/24 03:54:01;;;;;;;25.95;9.68;;;7.00;99.90;;;;;;4200898;28;20065;-87
2022/12/24 03:56:02;;;;;;;23.02;7.72;;;7.10;99.90;;;;;;4200720;28;20127;-87
2022/12/24 03:58:04;;;;;;;26.17;8.98;;;7.10;99.90;;;;;;4200477;28;20638;-87
2022/12/24 04:00:07;;;;;;;22.27;8.73;;;7.10;99.90;;;;;;4208314;28;20072;-87
2022/12/24 04:02:09;;;;;;;19.25;8.32;;;7.10;99.90;;;;;;4207142;28;20056;-87
2022/12/24 04:04:11;;;;;;;20.05;8.20;;;7.20;99.90;;;;;;4207929;28;20484;-87
2022/12/24 04:06:16;;;;;;;20.25;7.85;;;7.20;99.90;;;;;;4207620;28;20075;-87
2022/12/24 04:08:17;;;;;;;19.30;7.97;;;7.20;99.90;;;;;;4191308;28;20060;-89
2022/12/24 04:10:19;;;;;;;21.35;8.15;;;7.20;99.90;;;;;;4209410;28;20040;-88
2022/12/24 04:12:19;;;;;;;18.95;7.00;;;7.30;99.90;;;;;;4210197;28;20044;-87
2022/12/24 04:14:20;;;;;;;17.55;6.05;;;7.30;99.90;;;;;;4207023;28;20108;-88
2022/12/24 04:16:21;;;;;;;20.23;6.97;;;7.30;99.90;;;;;;4190910;28;20105;-88
2022/12/24 04:18:23;;;;;;;18.60;6.30;;;7.80;99.90;;;;;;4208595;28;20048;-88
2022/12/24 04:20:24;;;;;;;17.60;7.00;;;7.40;99.90;;;;;;4201490;28;20115;-87
2022/12/24 04:22:27;;;;;;;14.18;6.05;;;7.30;99.90;;;;;;4186947;28;20544;-88
2022/12/24 04:24:28;;;;;;;16.98;5.75;;;7.30;99.90;;;;;;4202580;28;20055;-87
2022/12/24 04:26:30;;;;;;;18.27;5.78;;;7.40;99.90;;;;;;4185823;28;20052;-87
2022/12/24 04:28:32;;;;;;;16.23;4.57;;;6.00;99.90;;;;;;4205722;28;20040;-87
2022/12/24 04:30:33;;;;;;;18.90;4.88;;;7.60;99.90;;;;;;4201150;28;20565;-88
2022/12/24 04:32:34;;;;;;;15.43;4.53;;;7.40;99.90;;;;;;4217934;28;20124;-88
2022/12/24 04:34:36;;;;;;;14.63;5.70;;;7.50;99.90;;;;;;4217143;28;20509;-88
2022/12/24 04:36:37;;;;;;;15.90;5.00;;;7.50;99.90;;;;;;4219198;28;20040;-88
2022/12/24 04:38:39;;;;;;;8.50;4.30;;;7.50;99.90;;;;;;4218506;28;20508;-88
2022/12/24 04:40:39;;;;;;;12.55;3.80;;;7.60;99.90;;;;;;4219175;28;20497;-88
2022/12/24 04:42:41;;;;;;;19.08;5.05;;;7.60;99.90;;;;;;4217248;28;20123;-88
2022/12/24 04:44:43;;;;;;;25.02;4.80;;;7.20;99.90;;;;;;4200005;28;20046;-88
2022/12/24 04:46:44;;;;;;;14.55;4.60;;;7.70;99.90;;;;;;4218539;28;20044;-87
2022/12/24 04:48:47;;;;;;;15.90;4.70;;;7.70;99.90;;;;;;4202031;28;20083;-87
2022/12/24 04:50:49;;;;;;;21.60;5.93;;;7.70;99.90;;;;;;4201827;28;20127;-87
2022/12/24 04:52:51;;;;;;;18.48;5.38;;;7.70;99.90;;;;;;4200467;28;20052;-87
2022/12/24 04:54:52;;;;;;;19.05;4.28;;;7.80;99.90;;;;;;4218406;28;20059;-88
2022/12/24 04:56:53;;;;;;;25.25;4.22;;;7.90;99.90;;;;;;4217373;28;20056;-87
2022/12/24 04:58:55;;;;;;;28.63;4.55;;;7.80;99.90;;;;;;4200972;28;20562;-87
2022/12/24 05:00:56;;;;;;;25.23;4.72;;;7.90;99.90;;;;;;4217367;28;20047;-87
2022/12/24 05:02:58;;;;;;;24.98;4.60;;;7.90;99.90;;;;;;4200042;28;20131;-87
2022/12/24 05:04:58;;;;;;;26.90;4.70;;;7.90;99.90;;;;;;4234009;28;20109;-88
2022/12/24 05:07:00;;;;;;;29.83;4.90;;;6.80;99.90;;;;;;4217896;28;20438;-87
2022/12/24 05:09:01;;;;;;;31.15;5.57;;;7.90;99.90;;;;;;4217765;28;20094;-87
2022/12/24 05:11:02;;;;;;;18.15;3.50;;;8.00;99.90;;;;;;4217550;28;20589;-88
2022/12/24 05:13:03;;;;;;;29.17;3.08;;;7.90;99.90;;;;;;4200781;28;20068;-88
2022/12/24 05:15:05;;;;;;;18.52;3.13;;;8.50;99.90;;;;;;4200589;28;20048;-87
2022/12/24 05:17:07;;;;;;;33.95;3.90;;;6.80;99.90;;;;;;4199807;28;20125;-88
2022/12/24 05:19:10;;;;;;;18.13;3.28;;;7.90;99.90;;;;;;4200193;28;20120;-88
2022/12/24 05:21:17;;;;;;;15.18;3.95;;;7.90;99.90;;;;;;4217811;28;20044;-88
2022/12/24 05:28:03;;;;;;;18.48;3.65;;;8.00;99.90;;;;;;4216463;28;20059;-88
2022/12/24 05:30:04;;;;;;;19.95;3.15;;;8.20;99.90;;;;;;4200152;28;20056;-89
2022/12/24 05:32:07;;;;;;;24.27;2.65;;;8.90;99.90;;;;;;4200962;28;20497;-88
2022/12/24 05:34:10;;;;;;;25.05;3.97;;;8.60;99.90;;;;;;4199581;28;20130;-88
2022/12/24 05:36:12;;;;;;;26.50;3.92;;;8.00;99.90;;;;;;4201248;28;20052;-88
2022/12/24 05:38:13;;;;;;;25.50;3.60;;;8.00;99.90;;;;;;4200119;28;20048;-87
2022/12/24 05:40:14;;;;;;;26.73;3.53;;;8.00;99.90;;;;;;4201641;28;20449;-88
2022/12/24 05:42:15;;;;;;;23.80;2.67;;;8.10;99.90;;;;;;4202423;28;20090;-88
2022/12/24 05:44:16;;;;;;;30.23;4.10;;;8.60;99.90;;;;;;4184717;28;20041;-88
2022/12/24 05:46:19;;;;;;;23.85;3.28;;;8.00;99.90;;;;;;4201207;28;20044;-87
2022/12/24 05:48:22;;;;;;;28.58;4.25;;;8.00;99.90;;;;;;4183724;28;20048;-88
2022/12/24 05:50:22;;;;;;;24.58;4.35;;;8.10;99.90;;;;;;4200467;28;20048;-87
2022/12/24 05:52:23;;;;;;;35.28;4.45;;;8.00;99.90;;;;;;4183626;28;20521;-88
2022/12/24 05:54:25;;;;;;;24.33;3.38;;;8.10;99.90;;;;;;4183771;28;20059;-87
2022/12/24 05:56:26;;;;;;;32.67;3.05;;;8.40;99.90;;;;;;4201570;28;20037;-87
2022/12/24 05:58:26;;;;;;;30.77;4.03;;;8.10;99.90;;;;;;4199705;28;20095;-87
2022/12/24 06:00:28;;;;;;;24.52;3.17;;;8.00;99.90;;;;;;4184404;28;20052;-87
2022/12/24 06:02:29;;;;;;;22.92;3.38;;;8.00;99.90;;;;;;4183476;28;20128;-87
2022/12/24 06:04:30;;;;;;;25.38;3.42;;;8.00;99.90;;;;;;4183106;28;20060;-87
2022/12/24 06:06:30;;;;;;;33.97;3.63;;;8.10;99.90;;;;;;4200928;28;20119;-87
2022/12/24 06:08:33;;;;;;;26.73;4.28;;;8.00;99.90;;;;;;4201232;28;20052;-87
2022/12/24 06:10:33;;;;;;;32.00;3.55;;;7.20;99.90;;;;;;4201417;28;20090;-87
2022/12/24 06:12:35;;;;;;;29.27;4.10;;;8.30;99.90;;;;;;4183977;28;20123;-86
2022/12/24 06:14:38;;;;;;;27.30;4.63;;;7.90;99.90;;;;;;4218051;28;20040;-88
2022/12/24 06:16:39;;;;;;;23.05;3.47;;;8.10;99.90;;;;;;4199878;28;20049;-87
2022/12/24 06:18:42;;;;;;;35.30;3.88;;;8.10;99.90;;;;;;4184422;28;20053;-88
2022/12/24 06:20:42;;;;;;;30.23;4.15;;;8.10;99.90;;;;;;4200695;28;20048;-87
2022/12/24 06:22:44;;;;;;;32.20;4.03;;;8.20;99.90;;;;;;4201138;28;20474;-87
2022/12/24 06:24:46;;;;;;;38.60;5.63;;;8.10;99.90;;;;;;4200617;28;20507;-87
2022/12/24 06:26:48;;;;;;;25.45;4.40;;;8.20;99.90;;;;;;4202516;28;20045;-87
2022/12/24 06:28:51;;;;;;;36.42;4.95;;;8.00;99.90;;;;;;4209276;28;20547;-87
2022/12/24 06:30:53;;;;;;;32.85;4.35;;;8.20;99.90;;;;;;4199571;28;20432;-87
2022/12/24 06:32:56;;;;;;;32.35;4.43;;;8.20;99.90;;;;;;4199754;28;20063;-87
2022/12/24 06:34:57;;;;;;;29.48;4.80;;;6.90;99.90;;;;;;4199818;28;20059;-87
2022/12/24 06:36:59;;;;;;;27.45;4.18;;;8.20;99.90;;;;;;4200138;28;20056;-87
2022/12/24 06:39:01;;;;;;;35.00;5.18;;;8.20;99.90;;;;;;4199953;28;20091;-87
2022/12/24 06:41:06;;;;;;;40.67;4.85;;;7.40;99.90;;;;;;4218333;28;20123;-87
2022/12/24 06:43:08;;;;;;;31.90;5.00;;;7.00;99.90;;;;;;4204357;28;20052;-87
2022/12/24 06:45:11;;;;;;;38.88;4.20;;;8.30;99.90;;;;;;4206373;28;20104;-87
2022/12/24 06:47:13;;;;;;;24.25;3.90;;;8.30;99.90;;;;;;4204682;28;20108;-87
2022/12/24 06:49:17;;;;;;;31.08;4.20;;;8.20;99.90;;;;;;4221105;28;20107;-88
2022/12/24 06:51:19;;;;;;;27.73;5.25;;;8.10;99.90;;;;;;4203040;28;20516;-88
2022/12/24 06:53:22;;;;;;;29.92;4.70;;;7.10;99.90;;;;;;4217132;28;20048;-87
2022/12/24 06:55:24;;;;;;;30.30;3.78;;;8.30;99.90;;;;;;4199538;28;20052;-88
2022/12/24 06:57:25;;;;;;;29.85;4.00;;;7.00;99.90;;;;;;4217428;28;20052;-88
2022/12/24 06:59:27;;;;;;;33.10;3.83;;;8.60;99.90;;;;;;4216160;28;20578;-87
2022/12/24 07:01:29;;;;;;;33.10;4.18;;;8.20;99.90;;;;;;4215295;28;20523;-88
2022/12/24 07:03:30;;;;;;;30.23;3.60;;;8.20;99.90;;;;;;4216635;28;20044;-89
2022/12/24 07:05:31;;;;;;;31.52;4.65;;;8.50;99.90;;;;;;4214304;28;20052;-88
2022/12/24 07:07:32;;;;;;;37.25;4.97;;;8.20;99.90;;;;;;4214551;28;20134;-88
2022/12/24 07:09:33;;;;;;;29.77;5.93;;;8.20;99.90;;;;;;4215492;28;20047;-88
2022/12/24 07:11:34;;;;;;;34.38;4.30;;;8.20;99.90;;;;;;4215654;28;20043;-88
2022/12/24 07:13:36;;;;;;;19.30;3.78;;;8.30;99.90;;;;;;4197160;28;20524;-88
2022/12/24 07:15:37;;;;;;;30.38;5.18;;;8.30;99.90;;;;;;4215448;28;20123;-88
2022/12/24 07:17:38;;;;;;;29.25;3.85;;;8.30;99.90;;;;;;4213833;28;20079;-89
2022/12/24 07:19:39;;;;;;;24.15;3.83;;;8.30;99.90;;;;;;4199154;28;20516;-88
2022/12/24 07:21:41;;;;;;;44.70;6.20;;;8.30;99.90;;;;;;4217605;28;20048;-90
2022/12/24 07:23:41;;;;;;;18.88;3.13;;;8.40;99.90;;;;;;4199992;28;20044;-89
2022/12/24 07:25:44;;;;;;;39.80;4.45;;;8.30;99.90;;;;;;4216179;28;20447;-87
2022/12/24 07:27:46;;;;;;;31.85;4.63;;;8.30;99.90;;;;;;4197672;28;20049;-88
2022/12/24 07:29:48;;;;;;;25.70;3.92;;;8.40;99.90;;;;;;4198897;28;20060;-88
2022/12/24 07:31:48;;;;;;;31.65;4.80;;;8.50;99.90;;;;;;4182723;28;20045;-87
2022/12/24 07:33:49;;;;;;;32.33;4.72;;;8.40;99.90;;;;;;4200041;28;20496;-87
2022/12/24 07:36:01;;;;;;;36.97;4.50;;;8.40;99.90;;;;;;4199824;28;20076;-88
2022/12/24 07:38:03;;;;;;;31.65;4.32;;;8.40;99.90;;;;;;4217838;28;20044;-89
2022/12/24 07:40:06;;;;;;;33.28;5.22;;;8.40;99.90;;;;;;4202880;28;20106;-88
2022/12/24 07:42:07;;;;;;;37.10;5.15;;;8.30;99.90;;;;;;4201227;28;20052;-88
2022/12/24 07:44:12;;;;;;;26.73;2.92;;;8.20;99.90;;;;;;4220551;28;20052;-89
2022/12/24 07:46:13;;;;;;;29.38;4.97;;;8.30;99.90;;;;;;4202297;28;20098;-89
2022/12/24 07:48:15;;;;;;;24.17;3.70;;;8.20;99.90;;;;;;4219630;28;20044;-88
2022/12/24 07:50:16;;;;;;;28.35;5.32;;;8.20;99.90;;;;;;4220415;28;20043;-88
2022/12/24 07:52:18;;;;;;;21.75;3.60;;;8.10;99.90;;;;;;4201852;28;20056;-88
2022/12/24 07:54:20;;;;;;;26.02;3.85;;;8.20;99.90;;;;;;4220363;28;20052;-88
2022/12/24 07:56:21;;;;;;;20.45;3.30;;;8.50;99.90;;;;;;4218576;28;20112;-88
2022/12/24 07:58:23;;;;;;;33.67;3.70;;;8.10;99.90;;;;;;4202744;28;20084;-88
2022/12/24 08:00:23;;;;;;;38.70;4.18;;;8.10;99.90;;;;;;4220093;28;20126;-88
2022/12/24 08:02:24;;;;;;;20.58;3.63;;;8.10;99.90;;;;;;4219843;28;20044;-88
2022/12/24 08:04:25;;;;;;;24.48;4.00;;;8.00;99.90;;;;;;4219013;28;20496;-87
2022/12/24 08:06:27;;;;;;;38.35;4.38;;;8.00;99.90;;;;;;4203037;28;20052;-87
2022/12/24 08:08:27;;;;;;;18.13;4.57;;;8.10;99.90;;;;;;4220346;28;20050;-88
2022/12/24 08:10:28;;;;;;;33.65;4.95;;;8.10;99.90;;;;;;4219375;28;20087;-88
2022/12/24 08:12:29;;;;;;;32.00;4.68;;;8.10;99.90;;;;;;4202084;28;20114;-88
2022/12/24 08:14:30;;;;;;;23.50;4.10;;;8.10;99.90;;;;;;4218284;28;20559;-88
2022/12/24 08:16:31;;;;;;;22.55;4.30;;;8.20;99.90;;;;;;4218592;28;20071;-88
2022/12/24 08:18:33;;;;;;;26.17;4.53;;;8.60;99.90;;;;;;4202664;28;20566;-88
2022/12/24 08:20:40;;;;;;;22.15;4.63;;;8.30;99.90;;;;;;4205755;28;20404;-88
2022/12/24 08:22:40;;;;;;;26.33;3.60;;;8.30;99.90;;;;;;4223302;28;20067;-88
2022/12/24 08:24:42;;;;;;;28.92;4.22;;;8.40;99.90;;;;;;4221982;28;20044;-86
2022/12/24 08:26:44;;;;;;;28.35;4.65;;;8.30;99.90;;;;;;4206092;28;20049;-87
2022/12/24 08:28:45;;;;;;;25.92;4.15;;;8.30;99.90;;;;;;4220919;28;20051;-88
2022/12/24 08:30:48;;;;;;;34.42;5.05;;;8.30;99.90;;;;;;4204712;28;20052;-88
2022/12/24 08:32:51;;;;;;;24.77;4.28;;;8.30;99.90;;;;;;4219681;28;20075;-88
2022/12/24 08:34:53;;;;;;;30.58;4.97;;;8.30;99.90;;;;;;4202636;28;20052;-87
2022/12/24 08:36:54;;;;;;;26.73;4.53;;;8.30;99.90;;;;;;4219419;28;20052;-88
2022/12/24 08:38:57;;;;;;;37.40;4.35;;;8.30;99.90;;;;;;4202901;28;20048;-87
2022/12/24 08:40:57;;;;;;;38.65;6.72;;;7.90;99.90;;;;;;4221338;28;20114;-88
2022/12/24 08:43:00;;;;;;;38.22;4.63;;;8.20;99.90;;;;;;4220514;28;20076;-87
2022/12/24 08:45:02;;;;;;;25.75;3.83;;;8.30;99.90;;;;;;4203589;28;20083;-87
2022/12/24 08:47:03;;;;;;;26.17;4.15;;;8.30;99.90;;;;;;4204752;28;20052;-87
2022/12/24 08:49:06;;;;;;;30.60;4.95;;;8.40;99.90;;;;;;4203270;28;20083;-88
2022/12/24 08:51:09;;;;;;;48.72;5.93;;;8.40;99.90;;;;;;4205597;28;20082;-87
2022/12/24 08:53:11;;;;;;;29.92;4.28;;;8.40;99.90;;;;;;4227874;28;20034;-88
2022/12/24 08:55:12;;;;;;;23.30;5.13;;;8.40;99.90;;;;;;4232878;28;20043;-88
2022/12/24 08:57:13;;;;;;;33.47;4.35;;;8.40;99.90;;;;;;4232118;28;20098;-88
2022/12/24 08:59:15;;;;;;;24.27;4.93;;;8.40;99.90;;;;;;4213447;28;20052;-88
2022/12/24 09:01:19;;;;;;;27.90;4.18;;;9.30;99.90;;;;;;4230077;28;20044;-87
2022/12/24 09:03:19;;;;;;;26.15;5.63;;;8.50;99.90;;;;;;4201966;28;20052;-88
2022/12/24 09:05:20;;;;;;;31.60;4.88;;;8.50;99.90;;;;;;4220462;28;20078;-87
2022/12/24 09:07:21;;;;;;;26.02;5.07;;;8.50;99.90;;;;;;4218722;28;20043;-87
2022/12/24 09:09:22;;;;;;;37.33;5.40;;;8.50;99.90;;;;;;4219230;28;20060;-88
2022/12/24 09:11:23;;;;;;;34.22;5.28;;;8.50;99.90;;;;;;4220110;28;20501;-88
2022/12/24 09:13:24;;;;;;;23.83;5.05;;;8.60;99.90;;;;;;4200665;28;20118;-87
2022/12/24 09:15:25;;;;;;;31.65;4.70;;;8.50;99.90;;;;;;4198764;28;20049;-88
2022/12/24 09:17:27;;;;;;;18.73;4.47;;;8.60;99.90;;;;;;4191802;28;20041;-87
2022/12/24 09:19:29;;;;;;;21.08;4.13;;;8.60;99.90;;;;;;4205985;28;20041;-88
2022/12/24 09:21:31;;;;;;;37.03;3.83;;;8.80;99.90;;;;;;4203995;28;20123;-87
2022/12/24 09:23:38;;;;;;;28.05;4.10;;;8.60;99.90;;;;;;4188645;28;20041;-88
2022/12/24 09:25:42;;;;;;;26.38;4.78;;;8.90;99.90;;;;;;4204980;28;20068;-88
2022/12/24 09:27:44;;;;;;;24.05;4.13;;;8.70;99.90;;;;;;4192909;28;20037;-88
2022/12/24 09:29:45;;;;;;;31.13;3.47;;;8.70;99.90;;;;;;4209790;28;20047;-88
2022/12/24 09:31:46;;;;;;;26.80;3.92;;;8.70;99.90;;;;;;4205471;28;20052;-87
2022/12/24 09:33:48;;;;;;;25.67;4.20;;;8.80;99.90;;;;;;4206468;28;20166;-88
2022/12/24 09:35:51;;;;;;;30.70;4.38;;;8.90;99.90;;;;;;4210113;28;20112;-89
2022/12/24 09:38:01;;;;;;;26.52;4.47;;;9.10;99.90;;;;;;4209499;28;20084;-90
2022/12/24 09:40:02;;;;;;;28.75;3.97;;;9.20;99.90;;;;;;4209331;28;20056;-86
2022/12/24 09:42:26;;;;;;;31.25;5.60;;;9.10;99.90;;;;;;4197444;28;20059;-87
2022/12/24 09:44:34;;;;;;;23.83;3.58;;;9.20;99.90;;;;;;4193322;28;20056;-87
2022/12/24 09:46:42;;;;;;;14.80;3.83;;;9.20;99.90;;;;;;4201273;28;20036;-87
2022/12/24 09:48:48;;;;;;;31.15;4.85;;;9.20;99.90;;;;;;4200701;28;20044;-87
2022/12/24 09:51:02;;;;;;;24.85;4.03;;;9.20;99.90;;;;;;4200583;28;20052;-87
2022/12/24 09:53:16;;;;;;;19.83;4.07;;;9.20;99.90;;;;;;4200096;28;20127;-88
2022/12/24 09:55:31;;;;;;;23.85;5.18;;;9.40;99.90;;;;;;4201085;28;20051;-87
2022/12/24 09:57:37;;;;;;;23.73;5.32;;;9.10;99.90;;;;;;4182858;28;20555;-89
2022/12/24 09:59:49;;;;;;;26.25;3.38;;;9.10;99.90;;;;;;4183264;28;20490;-88
2022/12/24 10:01:54;;;;;;;23.17;4.13;;;9.00;99.90;;;;;;4183068;28;20111;-88
2022/12/24 10:04:15;;;;;;;23.88;3.53;;;9.00;99.90;;;;;;4199562;28;20048;-88
2022/12/24 10:06:39;;;;;;;22.75;3.42;;;8.10;99.90;;;;;;4201247;28;20130;-89
2022/12/24 10:08:52;;;;;;;27.35;3.30;;;9.00;99.90;;;;;;4205278;28;20091;-87
2022/12/24 10:11:33;;;;;;;25.23;4.47;;;9.00;99.90;;;;;;4213358;28;20117;-88
2022/12/24 10:14:02;;;;;;;20.00;3.72;;;9.00;99.90;;;;;;4191420;28;20112;-87
2022/12/24 10:16:10;;;;;;;22.70;3.42;;;9.10;99.90;;;;;;4214403;28;20055;-87
2022/12/24 10:18:41;;;;;;;26.17;3.75;;;9.10;99.90;;;;;;4212138;28;20108;-88
2022/12/24 10:20:49;;;;;;;23.17;4.07;;;9.20;99.90;;;;;;4209394;28;20052;-88
2022/12/24 10:23:12;;;;;;;16.70;3.92;;;9.20;99.90;;;;;;4203041;28;20049;-85
2022/12/24 10:25:15;;;;;;;26.17;3.40;;;9.20;99.90;;;;;;4171299;28;20086;-85
2022/12/24 10:27:20;;;;;;;26.15;4.20;;;9.30;99.90;;;;;;4197256;28;20049;-85
2022/12/24 10:29:26;;;;;;;21.38;3.25;;;9.30;99.90;;;;;;4200149;28;20044;-85
2022/12/24 10:31:38;;;;;;;25.38;2.92;;;9.40;99.90;;;;;;4197161;28;20078;-85
2022/12/24 10:33:45;;;;;;;23.80;3.50;;;9.60;99.90;;;;;;4197105;28;20052;-85
2022/12/24 10:35:53;;;;;;;28.58;4.35;;;9.60;99.90;;;;;;4196852;28;20056;-85
2022/12/24 10:37:56;;;;;;;21.65;3.50;;;9.60;99.90;;;;;;4198025;28;20058;-85
2022/12/24 10:40:00;;;;;;;43.70;4.65;;;9.60;99.90;;;;;;4197626;28;20076;-86
2022/12/24 10:42:01;;;;;;;25.48;3.15;;;9.60;99.90;;;;;;4198252;28;20071;-85
2022/12/24 10:44:03;;;;;;;31.27;3.72;;;9.60;99.90;;;;;;4196905;28;20394;-85
2022/12/24 10:46:14;;;;;;;20.15;4.07;;;9.50;99.90;;;;;;4180567;28;20114;-86
2022/12/24 10:48:47;;;;;;;27.70;3.25;;;9.60;99.90;;;;;;4198190;28;20163;-85
2022/12/24 10:51:02;;;;;;;19.83;3.45;;;9.50;99.90;;;;;;4197138;28;20055;-87
2022/12/24 10:53:36;;;;;;;27.08;4.57;;;9.60;99.90;;;;;;4199345;28;20052;-87
2022/12/24 10:55:37;;;;;;;22.58;4.15;;;9.60;99.90;;;;;;4200727;28;20040;-87
2022/12/24 10:57:39;;;;;;;24.40;3.58;;;9.60;99.90;;;;;;4201011;28;20074;-87
2022/12/24 10:59:50;;;;;;;28.27;5.32;;;9.60;99.90;;;;;;4216326;28;20043;-87